createdAt,value
2024-03-21T00:00:16.915Z,95.4
2024-03-21T00:01:18.598Z,95.4
2024-03-21T00:02:20.632Z,95.5
2024-03-21T00:03:22.625Z,95.6
2024-03-21T00:04:24.590Z,95.7
2024-03-21T00:05:26.989Z,95.9
2024-03-21T00:06:28.598Z,95.9
2024-03-21T00:07:30.682Z,96
2024-03-21T00:08:32.593Z,96
2024-03-21T00:09:34.616Z,95.8
2024-03-21T00:10:36.615Z,95.6
2024-03-21T00:11:38.605Z,95.6
2024-03-21T00:12:40.613Z,95.6
2024-03-21T00:13:42.596Z,95.7
2024-03-21T00:14:44.599Z,95.7
2024-03-21T00:15:46.575Z,95.7
2024-03-21T00:16:48.645Z,95.8
2024-03-21T00:17:50.577Z,95.7
2024-03-21T00:18:52.597Z,95.6
2024-03-21T00:19:54.575Z,95.6
2024-03-21T00:20:56.600Z,95.5
2024-03-21T00:21:58.604Z,95.5
2024-03-21T00:23:00.580Z,95.4
2024-03-21T00:24:02.568Z,95.5
2024-03-21T00:25:04.594Z,95.5
2024-03-21T00:26:06.603Z,95.5
2024-03-21T00:27:08.563Z,95.4
2024-03-21T00:28:10.578Z,95.5
2024-03-21T00:29:12.569Z,95.4
2024-03-21T00:30:14.584Z,95.4
2024-03-21T00:31:16.592Z,95.4
2024-03-21T00:32:18.554Z,95.3
2024-03-21T00:33:20.551Z,95.2
2024-03-21T00:34:22.577Z,95.2
2024-03-21T00:35:24.581Z,95.3
2024-03-21T00:36:26.551Z,95.3
2024-03-21T00:37:28.557Z,95.2
2024-03-21T00:38:30.556Z,95.2
2024-03-21T00:39:32.582Z,95.4
2024-03-21T00:40:34.594Z,95.4
2024-03-21T00:41:36.570Z,95.3
2024-03-21T00:42:38.558Z,95.2
2024-03-21T00:43:40.557Z,95
2024-03-21T00:44:42.571Z,95
2024-03-21T00:45:44.545Z,95
2024-03-21T00:46:46.577Z,94.9
2024-03-21T00:47:48.544Z,95
2024-03-21T00:48:50.571Z,95
2024-03-21T00:49:52.563Z,94.9
2024-03-21T00:50:54.534Z,94.8
2024-03-21T00:51:56.538Z,94.7
2024-03-21T00:52:58.548Z,94.5
2024-03-21T00:54:00.557Z,94.3
2024-03-21T00:55:02.538Z,94.2
2024-03-21T00:56:04.559Z,94.3
2024-03-21T00:57:06.544Z,94.4
2024-03-21T00:58:08.938Z,94.5
2024-03-21T00:59:10.546Z,94.4
2024-03-21T01:00:12.519Z,94.4
2024-03-21T01:01:14.518Z,94.4
2024-03-21T01:02:16.518Z,94.5
2024-03-21T01:03:18.554Z,94.5
2024-03-21T01:04:20.515Z,94.6
2024-03-21T01:05:22.528Z,94.7
2024-03-21T01:06:24.749Z,94.7
2024-03-21T01:07:26.543Z,94.8
2024-03-21T01:08:28.539Z,94.9
2024-03-21T01:09:30.516Z,95.2
2024-03-21T01:10:32.520Z,95.2
2024-03-21T01:11:34.537Z,95.3
2024-03-21T01:12:36.767Z,95.3
2024-03-21T01:13:38.505Z,95.5
2024-03-21T01:14:40.502Z,95.5
2024-03-21T01:15:42.505Z,95.6
2024-03-21T01:16:45.059Z,95.7
2024-03-21T01:17:46.532Z,95.8
2024-03-21T01:18:48.510Z,95.9
2024-03-21T01:19:50.867Z,95.9
2024-03-21T01:20:52.505Z,95.9
2024-03-21T01:21:54.541Z,95.9
2024-03-21T01:22:56.503Z,95.9
2024-03-21T01:23:58.505Z,95.8
2024-03-21T01:25:00.506Z,95.9
2024-03-21T01:26:02.511Z,95.8
2024-03-21T01:27:04.547Z,95.9
2024-03-21T01:28:06.668Z,95.9
2024-03-21T01:29:08.481Z,95.9
2024-03-21T01:30:10.494Z,96
2024-03-21T01:31:12.505Z,96.1
2024-03-21T01:32:14.491Z,96.1
2024-03-21T01:33:16.488Z,96.1
2024-03-21T01:34:18.478Z,95.9
2024-03-21T01:35:20.503Z,95.7
2024-03-21T01:36:22.530Z,95.7
2024-03-21T01:37:24.490Z,95.7
2024-03-21T01:38:26.479Z,95.7
2024-03-21T01:39:28.498Z,95.7
2024-03-21T01:40:30.521Z,95.8
2024-03-21T01:41:32.473Z,95.9
2024-03-21T01:42:34.490Z,96
2024-03-21T01:43:36.672Z,95.7
2024-03-21T01:44:38.470Z,95.5
2024-03-21T01:45:40.492Z,95.3
2024-03-21T01:46:42.487Z,95.4
2024-03-21T01:47:44.465Z,95.5
2024-03-21T01:48:46.474Z,95.7
2024-03-21T01:49:48.597Z,95.9
2024-03-21T01:50:50.491Z,96.1
2024-03-21T01:51:52.461Z,96.2
2024-03-21T01:52:54.477Z,96.2
2024-03-21T01:53:56.465Z,96.3
2024-03-21T01:54:58.489Z,96.3
2024-03-21T01:56:00.614Z,96.4
2024-03-21T01:57:02.461Z,96.3
2024-03-21T01:58:04.737Z,96.3
2024-03-21T01:59:06.498Z,96.3
2024-03-21T02:00:08.451Z,96.2
2024-03-21T02:01:10.459Z,95.9
2024-03-21T02:02:12.457Z,95.6
2024-03-21T02:03:14.452Z,95.5
2024-03-21T02:04:16.484Z,95.5
2024-03-21T02:05:18.451Z,95.6
2024-03-21T02:06:20.448Z,95.7
2024-03-21T02:07:22.454Z,96
2024-03-21T02:08:24.480Z,96.1
2024-03-21T02:09:26.440Z,96.3
2024-03-21T02:10:28.451Z,96.4
2024-03-21T02:11:30.443Z,96.4
2024-03-21T02:12:32.432Z,96.4
2024-03-21T02:13:34.502Z,96.4
2024-03-21T02:14:36.455Z,96.4
2024-03-21T02:15:38.441Z,96.1
2024-03-21T02:16:40.433Z,95.7
2024-03-21T02:17:42.458Z,95.4
2024-03-21T02:18:44.452Z,95.1
2024-03-21T02:19:46.474Z,95
2024-03-21T02:20:48.426Z,95
2024-03-21T02:21:50.452Z,95.1
2024-03-21T02:22:52.529Z,95.1
2024-03-21T02:23:54.433Z,95.3
2024-03-21T02:24:56.418Z,95.5
2024-03-21T02:25:58.424Z,95.7
2024-03-21T02:27:00.441Z,95.8
2024-03-21T02:28:02.440Z,95.8
2024-03-21T02:29:04.428Z,95.9
2024-03-21T02:30:06.422Z,96
2024-03-21T02:31:08.421Z,96.2
2024-03-21T02:32:10.432Z,96.6
2024-03-21T02:33:12.425Z,96.8
2024-03-21T02:34:14.410Z,96.8
2024-03-21T02:35:16.422Z,96.8
2024-03-21T02:36:18.429Z,96.7
2024-03-21T02:37:20.505Z,96.7
2024-03-21T02:38:22.411Z,96.6
2024-03-21T02:39:24.396Z,96.5
2024-03-21T02:40:26.397Z,96.3
2024-03-21T02:41:28.578Z,96.2
2024-03-21T02:42:30.396Z,96.1
2024-03-21T02:43:32.408Z,96.1
2024-03-21T02:44:34.418Z,96.1
2024-03-21T02:45:36.436Z,96.1
2024-03-21T02:46:38.424Z,96.2
2024-03-21T02:47:40.409Z,96.3
2024-03-21T02:48:42.389Z,96.3
2024-03-21T02:49:44.391Z,96.4
2024-03-21T02:50:46.413Z,96.5
2024-03-21T02:51:48.387Z,96.5
2024-03-21T02:52:50.422Z,96.6
2024-03-21T02:53:52.385Z,96.7
2024-03-21T02:54:54.411Z,96.9
2024-03-21T02:55:56.419Z,97
2024-03-21T02:56:58.381Z,97
2024-03-21T02:58:00.381Z,97
2024-03-21T02:59:02.381Z,96.9
2024-03-21T03:00:04.661Z,96.6
2024-03-21T03:01:06.399Z,96.2
2024-03-21T03:02:08.397Z,96.2
2024-03-21T03:03:10.367Z,96
2024-03-21T03:04:12.391Z,96
2024-03-21T03:05:14.402Z,96
2024-03-21T03:06:16.378Z,96
2024-03-21T03:07:18.394Z,96.2
2024-03-21T03:08:20.367Z,96.2
2024-03-21T03:09:22.421Z,96.3
2024-03-21T03:10:24.396Z,96.3
2024-03-21T03:11:26.364Z,96.2
2024-03-21T03:12:28.363Z,96.3
2024-03-21T03:13:30.384Z,96.4
2024-03-21T03:14:32.396Z,96.4
2024-03-21T03:15:34.380Z,96.4
2024-03-21T03:16:36.374Z,96.4
2024-03-21T03:17:38.368Z,96.2
2024-03-21T03:18:40.389Z,96.2
2024-03-21T03:19:42.359Z,96.1
2024-03-21T03:20:44.347Z,96.2
2024-03-21T03:21:46.354Z,96.2
2024-03-21T03:22:48.398Z,96.2
2024-03-21T03:23:50.384Z,96.2
2024-03-21T03:24:52.348Z,96.1
2024-03-21T03:25:54.406Z,96
2024-03-21T03:26:56.357Z,95.9
2024-03-21T03:27:58.367Z,95.9
2024-03-21T03:29:00.337Z,95.9
2024-03-21T03:30:02.375Z,95.9
2024-03-21T03:31:04.352Z,96
2024-03-21T03:32:06.376Z,96.1
2024-03-21T03:33:08.371Z,96.1
2024-03-21T03:34:10.339Z,96.2
2024-03-21T03:35:12.332Z,96.3
2024-03-21T03:36:14.338Z,96.4
2024-03-21T03:37:16.359Z,96.5
2024-03-21T03:38:18.342Z,96.6
2024-03-21T03:39:20.326Z,96.7
2024-03-21T03:40:22.348Z,96.6
2024-03-21T03:41:24.352Z,96.7
2024-03-21T03:42:26.350Z,96.7
2024-03-21T03:43:28.435Z,96.7
2024-03-21T03:44:30.323Z,96.8
2024-03-21T03:45:32.327Z,96.8
2024-03-21T03:46:34.376Z,97
2024-03-21T03:47:36.349Z,97.1
2024-03-21T03:48:38.343Z,97.2
2024-03-21T03:49:41.232Z,97.2
2024-03-21T03:50:42.344Z,97.4
2024-03-21T03:51:44.336Z,97.5
2024-03-21T03:52:46.319Z,97.6
2024-03-21T03:53:48.305Z,97.7
2024-03-21T03:54:50.305Z,97.8
2024-03-21T03:55:52.343Z,97.9
2024-03-21T03:56:54.308Z,97.9
2024-03-21T03:57:59.180Z,97.8
2024-03-21T03:58:59.462Z,97.8
2024-03-21T04:00:01.679Z,97.8
2024-03-21T04:01:03.508Z,97.7
2024-03-21T04:02:05.486Z,97.5
2024-03-21T04:03:07.473Z,97.3
2024-03-21T04:04:09.522Z,97.1
2024-03-21T04:05:11.487Z,97
2024-03-21T04:06:13.467Z,97
2024-03-21T04:07:15.449Z,97.3
2024-03-21T04:08:17.463Z,97.3
2024-03-21T04:09:19.473Z,97.2
2024-03-21T04:10:21.479Z,97
2024-03-21T04:11:23.477Z,96.8
2024-03-21T04:12:25.451Z,96.7
2024-03-21T04:13:27.453Z,96.6
2024-03-21T04:14:29.530Z,96.7
2024-03-21T04:15:31.441Z,96.8
2024-03-21T04:16:33.640Z,97
2024-03-21T04:17:35.469Z,97.1
2024-03-21T04:18:37.481Z,97.2
2024-03-21T04:19:39.543Z,97.3
2024-03-21T04:20:41.444Z,97.5
2024-03-21T04:21:43.433Z,97.4
2024-03-21T04:22:45.439Z,97.2
2024-03-21T04:23:47.457Z,97.1
2024-03-21T04:24:49.432Z,97
2024-03-21T04:25:51.432Z,97
2024-03-21T04:26:53.434Z,96.5
2024-03-21T04:27:55.461Z,95.6
2024-03-21T04:28:57.696Z,95.1
2024-03-21T04:29:59.424Z,95
2024-03-21T04:31:01.432Z,95
2024-03-21T04:32:03.473Z,95
2024-03-21T04:33:05.464Z,95.1
2024-03-21T04:34:07.428Z,95.4
2024-03-21T04:35:09.433Z,95.7
2024-03-21T04:36:11.412Z,96.1
2024-03-21T04:37:13.444Z,96.3
2024-03-21T04:38:28.014Z,96.3
2024-03-21T04:39:36.600Z,96.5
2024-03-21T04:40:38.622Z,96.6
2024-03-21T04:41:40.621Z,96.8
2024-03-21T04:42:42.619Z,96.8
2024-03-21T04:43:44.590Z,96.8
2024-03-21T04:44:46.599Z,96.9
2024-03-21T04:45:48.599Z,97.1
2024-03-21T04:46:50.620Z,97.3
2024-03-21T04:47:57.653Z,97.5
2024-03-21T04:48:58.290Z,97.6
2024-03-21T04:50:00.596Z,97.7
2024-03-21T04:51:02.341Z,97.7
2024-03-21T04:52:04.295Z,97.8
2024-03-21T04:53:06.264Z,97.8
2024-03-21T04:54:08.265Z,97.8
2024-03-21T04:55:10.566Z,97.8
2024-03-21T04:56:12.287Z,97.8
2024-03-21T04:57:14.259Z,97.8
2024-03-21T04:58:16.261Z,97.8
2024-03-21T04:59:18.476Z,97.5
2024-03-21T05:00:20.250Z,97
2024-03-21T05:01:22.299Z,96.3
2024-03-21T05:02:24.253Z,95.4
2024-03-21T05:03:26.266Z,95
2024-03-21T05:04:28.260Z,94.9
2024-03-21T05:05:30.501Z,94.9
2024-03-21T05:06:32.250Z,95.2
2024-03-21T05:07:34.245Z,95.5
2024-03-21T05:08:36.242Z,95.7
2024-03-21T05:09:38.271Z,95.8
2024-03-21T05:10:40.493Z,95.7
2024-03-21T05:11:42.252Z,95.9
2024-03-21T05:12:44.245Z,96.2
2024-03-21T05:13:46.248Z,96.5
2024-03-21T05:14:48.264Z,96.8
2024-03-21T05:15:50.239Z,97.1
2024-03-21T05:16:52.520Z,97.3
2024-03-21T05:17:54.233Z,97.3
2024-03-21T05:18:56.236Z,97.5
2024-03-21T05:19:58.315Z,97.6
2024-03-21T05:21:00.260Z,97.7
2024-03-21T05:22:02.238Z,97.8
2024-03-21T05:23:04.244Z,97.8
2024-03-21T05:24:06.259Z,98.1
2024-03-21T05:25:08.229Z,98.2
2024-03-21T05:26:10.228Z,98.3
2024-03-21T05:27:12.227Z,98.3
2024-03-21T05:28:14.233Z,98.3
2024-03-21T05:29:16.244Z,98.2
2024-03-21T05:30:18.219Z,98.2
2024-03-21T05:31:20.222Z,98
2024-03-21T05:32:22.209Z,97.8
2024-03-21T05:33:24.242Z,97.7
2024-03-21T05:34:26.214Z,97.7
2024-03-21T05:35:28.245Z,97.8
2024-03-21T05:36:30.225Z,97.8
2024-03-21T05:37:32.222Z,97.8
2024-03-21T05:38:34.234Z,97.8
2024-03-21T05:39:36.470Z,97.8
2024-03-21T05:40:38.209Z,97.7
2024-03-21T05:41:40.204Z,97.5
2024-03-21T05:42:42.230Z,97.5
2024-03-21T05:43:44.227Z,97.5
2024-03-21T05:44:46.204Z,97.5
2024-03-21T05:45:48.202Z,97.5
2024-03-21T05:46:50.203Z,97.6
2024-03-21T05:47:52.221Z,97.7
2024-03-21T05:48:54.198Z,98.1
2024-03-21T05:49:56.205Z,98.6
2024-03-21T05:50:58.313Z,98.6
2024-03-21T05:52:00.546Z,98.3
2024-03-21T05:53:02.231Z,98
2024-03-21T05:54:04.221Z,98
2024-03-21T05:55:06.190Z,98.3
2024-03-21T05:56:08.184Z,98.6
2024-03-21T05:57:10.203Z,98.7
2024-03-21T05:58:12.199Z,98.6
2024-03-21T05:59:14.186Z,98.5
2024-03-21T06:00:16.336Z,98.3
2024-03-21T06:01:18.202Z,98.1
2024-03-21T06:02:20.209Z,98.2
2024-03-21T06:03:22.181Z,98.1
2024-03-21T06:04:24.178Z,97.9
2024-03-21T06:05:26.187Z,98.1
2024-03-21T06:06:28.216Z,97.9
2024-03-21T06:07:31.031Z,97.9
2024-03-21T06:08:32.171Z,98.3
2024-03-21T06:09:34.173Z,98.7
2024-03-21T06:10:36.589Z,98.9
2024-03-21T06:11:38.193Z,99
2024-03-21T06:12:40.198Z,99.1
2024-03-21T06:13:42.177Z,99.3
2024-03-21T06:14:44.168Z,99.2
2024-03-21T06:15:46.550Z,99
2024-03-21T06:16:48.641Z,99.2
2024-03-21T06:17:50.158Z,99.3
2024-03-21T06:18:52.158Z,99.2
2024-03-21T06:19:54.201Z,99.1
2024-03-21T06:20:56.180Z,99
2024-03-21T06:21:58.171Z,98.9
2024-03-21T06:23:00.353Z,98.9
2024-03-21T06:24:02.156Z,98.8
2024-03-21T06:25:04.187Z,98.7
2024-03-21T06:26:06.152Z,98.6
2024-03-21T06:27:08.149Z,98.6
2024-03-21T06:28:10.145Z,98.4
2024-03-21T06:29:12.179Z,98.3
2024-03-21T06:30:14.753Z,98.3
2024-03-21T06:31:16.146Z,98.4
2024-03-21T06:32:18.152Z,98.4
2024-03-21T06:33:20.146Z,98.4
2024-03-21T06:34:23.228Z,98.4
2024-03-21T06:35:24.131Z,98.4
2024-03-21T06:36:26.146Z,98.3
2024-03-21T06:37:28.164Z,98.2
2024-03-21T06:38:30.178Z,98.2
2024-03-21T06:39:32.580Z,98.1
2024-03-21T06:40:34.748Z,98.1
2024-03-21T06:41:36.137Z,98
2024-03-21T06:42:38.131Z,98
2024-03-21T06:43:40.179Z,98
2024-03-21T06:44:42.123Z,98
2024-03-21T06:45:44.146Z,98.1
2024-03-21T06:46:46.126Z,98.2
2024-03-21T06:47:48.155Z,98.2
2024-03-21T06:48:50.462Z,98.2
2024-03-21T06:49:52.120Z,98.1
2024-03-21T06:50:54.118Z,98.1
2024-03-21T06:51:56.121Z,98
2024-03-21T06:52:58.393Z,97.9
2024-03-21T06:54:00.152Z,97.9
2024-03-21T06:55:02.118Z,97.9
2024-03-21T06:56:04.138Z,97.9
2024-03-21T06:57:06.142Z,97.8
2024-03-21T06:58:08.137Z,97.6
2024-03-21T06:59:10.123Z,97.4
2024-03-21T07:00:12.117Z,97.3
2024-03-21T07:01:14.114Z,97.2
2024-03-21T07:02:16.134Z,97.1
2024-03-21T07:03:18.126Z,97
2024-03-21T07:04:20.100Z,97
2024-03-21T07:05:22.108Z,96.9
2024-03-21T07:06:24.137Z,97
2024-03-21T07:07:26.143Z,96.9
2024-03-21T07:08:28.113Z,96.8
2024-03-21T07:09:30.328Z,97
2024-03-21T07:10:32.095Z,97.2
2024-03-21T07:11:34.153Z,97.2
2024-03-21T07:12:36.426Z,97.2
2024-03-21T07:13:38.097Z,97
2024-03-21T07:14:40.300Z,96.7
2024-03-21T07:15:42.144Z,96.6
2024-03-21T07:16:44.117Z,96.6
2024-03-21T07:17:46.083Z,96.7
2024-03-21T07:18:48.111Z,96.7
2024-03-21T07:19:50.095Z,96.6
2024-03-21T07:20:52.122Z,96.5
2024-03-21T07:21:54.105Z,96.3
2024-03-21T07:22:56.126Z,96.2
2024-03-21T07:23:58.738Z,96.2
2024-03-21T07:25:00.569Z,96.5
2024-03-21T07:26:03.152Z,96.7
2024-03-21T07:27:04.168Z,96.5
2024-03-21T07:28:06.250Z,96.5
2024-03-21T07:29:08.125Z,96.4
2024-03-21T07:30:10.447Z,96.4
2024-03-21T07:31:12.663Z,96.3
2024-03-21T07:32:14.472Z,96.2
2024-03-21T07:33:16.119Z,96.1
2024-03-21T07:34:18.448Z,96
2024-03-21T07:35:20.196Z,96.2
2024-03-21T07:36:22.456Z,95.8
2024-03-21T07:37:24.069Z,95.8
2024-03-21T07:38:26.128Z,95.3
2024-03-21T07:39:28.379Z,95.2
2024-03-21T07:40:30.293Z,94.7
2024-03-21T07:41:32.267Z,94.4
2024-03-21T07:42:34.575Z,94
2024-03-21T07:43:36.098Z,94.1
2024-03-21T07:44:38.372Z,94.4
2024-03-21T07:45:40.596Z,93.5
2024-03-21T07:46:42.632Z,93.6
2024-03-21T07:47:44.476Z,93.8
2024-03-21T07:48:46.535Z,93.7
2024-03-21T07:49:48.280Z,93.8
2024-03-21T07:50:50.402Z,94
2024-03-21T07:51:52.358Z,94.4
2024-03-21T07:52:54.082Z,94.3
2024-03-21T07:53:56.070Z,94.5
2024-03-21T07:54:58.862Z,94.5
2024-03-21T07:56:00.390Z,94.1
2024-03-21T07:57:02.728Z,94.2
2024-03-21T07:58:04.128Z,94.1
2024-03-21T07:59:06.743Z,94.1
2024-03-21T08:00:08.564Z,94.4
2024-03-21T08:01:11.559Z,93.7
2024-03-21T08:02:12.373Z,93.3
2024-03-21T08:03:14.423Z,93.1
2024-03-21T08:04:16.724Z,93.2
2024-03-21T08:05:18.824Z,93.4
2024-03-21T08:06:20.077Z,93.3
2024-03-21T08:07:22.428Z,93.5
2024-03-21T08:08:24.701Z,92.9
2024-03-21T08:09:26.032Z,92.5
2024-03-21T08:10:28.442Z,92.2
2024-03-21T08:11:30.067Z,92.3
2024-03-21T08:12:32.590Z,91.9
2024-03-21T08:13:34.636Z,91.8
2024-03-21T08:14:36.129Z,91.5
2024-03-21T08:15:39.358Z,91.6
2024-03-21T08:16:40.305Z,91.2
2024-03-21T08:17:42.072Z,90.5
2024-03-21T08:18:44.256Z,91.2
2024-03-21T08:19:46.931Z,91.3
2024-03-21T08:20:48.723Z,91.3
2024-03-21T08:21:50.741Z,90.4
2024-03-21T08:22:53.087Z,90.3
2024-03-21T08:23:54.086Z,89.7
2024-03-21T08:24:56.008Z,89.8
2024-03-21T08:25:58.057Z,90
2024-03-21T08:27:00.041Z,90.6
2024-03-21T08:28:02.013Z,90.2
2024-03-21T08:29:04.601Z,90.5
2024-03-21T08:30:07.194Z,90.3
2024-03-21T08:31:09.217Z,90.8
2024-03-21T08:32:10.974Z,91
2024-03-21T08:33:12.752Z,91.1
2024-03-21T08:34:14.882Z,89.9
2024-03-21T08:35:16.264Z,88.9
2024-03-21T08:36:18.619Z,89.3
2024-03-21T08:37:20.641Z,88.7
2024-03-21T08:38:22.262Z,88.9
2024-03-21T08:39:24.431Z,89.4
2024-03-21T08:40:26.539Z,88.6
2024-03-21T08:41:28.366Z,87.8
2024-03-21T08:42:30.614Z,88.1
2024-03-21T08:43:32.430Z,87.9
2024-03-21T08:44:35.346Z,87.5
2024-03-21T08:45:37.375Z,87.8
2024-03-21T08:46:38.821Z,87.2
2024-03-21T08:47:41.308Z,87
2024-03-21T08:48:42.671Z,86.8
2024-03-21T08:49:44.369Z,87.4
2024-03-21T08:50:47.400Z,87.9
2024-03-21T08:51:48.558Z,87.6
2024-03-21T08:52:51.143Z,88
2024-03-21T08:53:53.512Z,87.7
2024-03-21T08:54:55.271Z,87.5
2024-03-21T08:55:56.267Z,87.6
2024-03-21T08:56:58.667Z,88.3
2024-03-21T08:58:00.678Z,88.3
2024-03-21T08:59:02.666Z,87.6
2024-03-21T09:00:04.289Z,87.1
2024-03-21T09:01:06.968Z,86.5
2024-03-21T09:02:08.781Z,87.4
2024-03-21T09:03:11.129Z,88.3
2024-03-21T09:04:12.866Z,88.1
2024-03-21T09:05:14.614Z,88
2024-03-21T09:06:16.976Z,87.6
2024-03-21T09:07:22.021Z,86.9
2024-03-21T09:08:24.545Z,86.6
2024-03-21T09:09:26.483Z,87.3
2024-03-21T09:10:29.199Z,87.1
2024-03-21T09:11:31.216Z,87
2024-03-21T09:12:33.048Z,86.1
2024-03-21T09:13:34.170Z,86.1
2024-03-21T09:14:36.452Z,86.6
2024-03-21T09:15:38.127Z,86.6
2024-03-21T09:16:40.145Z,85.7
2024-03-21T09:17:42.145Z,86.1
2024-03-21T09:18:44.438Z,85.9
2024-03-21T09:19:46.129Z,86
2024-03-21T09:20:48.122Z,85.8
2024-03-21T09:21:50.399Z,86
2024-03-21T09:22:52.378Z,85.5
2024-03-21T09:23:54.126Z,85.7
2024-03-21T09:24:56.385Z,85.7
2024-03-21T09:25:58.133Z,84.6
2024-03-21T09:27:00.126Z,83.4
2024-03-21T09:28:02.131Z,83
2024-03-21T09:29:04.439Z,82.7
2024-03-21T09:30:06.140Z,82.9
2024-03-21T09:31:08.130Z,82.9
2024-03-21T09:32:10.317Z,81.4
2024-03-21T09:33:12.213Z,80.9
2024-03-21T09:34:14.178Z,81
2024-03-21T09:35:16.106Z,80.7
2024-03-21T09:36:18.143Z,79
2024-03-21T09:37:23.103Z,79.9
2024-03-21T09:38:24.404Z,78.8
2024-03-21T09:39:26.030Z,79.2
2024-03-21T09:40:28.223Z,79.2
2024-03-21T09:41:30.059Z,80.8
2024-03-21T09:42:32.041Z,79.2
2024-03-21T09:43:34.403Z,79.1
2024-03-21T09:44:36.123Z,77.4
2024-03-21T09:45:38.060Z,77.6
2024-03-21T09:46:40.121Z,77.2
2024-03-21T09:47:42.022Z,78
2024-03-21T09:48:44.040Z,78.5
2024-03-21T09:49:46.050Z,77.7
2024-03-21T09:50:48.050Z,78.5
2024-03-21T09:51:50.198Z,79.1
2024-03-21T09:52:52.029Z,78.7
2024-03-21T09:53:54.360Z,78.1
2024-03-21T09:54:56.038Z,78.9
2024-03-21T09:55:58.146Z,78.8
2024-03-21T09:57:00.006Z,79.4
2024-03-21T09:58:02.017Z,77.7
2024-03-21T09:59:04.089Z,77.8
2024-03-21T10:00:06.388Z,78.8
2024-03-21T10:01:08.001Z,77.7
2024-03-21T10:02:10.179Z,78
2024-03-21T10:03:12.000Z,77.2
2024-03-21T10:04:14.277Z,76.1
2024-03-21T10:05:16.012Z,75
2024-03-21T10:06:17.997Z,74.4
2024-03-21T10:07:20.091Z,73.7
2024-03-21T10:08:22.028Z,75
2024-03-21T10:09:24.013Z,74.7
2024-03-21T10:10:26.017Z,73.7
2024-03-21T10:11:27.999Z,74.8
2024-03-21T10:12:30.012Z,76
2024-03-21T10:13:32.019Z,74.1
2024-03-21T10:14:34.022Z,73.5
2024-03-21T10:15:36.010Z,71.1
2024-03-21T10:16:37.987Z,72.7
2024-03-21T10:17:40.014Z,72
2024-03-21T10:18:42.004Z,71.6
2024-03-21T10:19:43.984Z,71.2
2024-03-21T10:20:45.988Z,70.6
2024-03-21T10:21:47.978Z,71.7
2024-03-21T10:22:50.015Z,72.7
2024-03-21T10:23:51.978Z,70.1
2024-03-21T10:24:53.986Z,70.9
2024-03-21T10:25:55.977Z,70.2
2024-03-21T10:26:58.411Z,70.8
2024-03-21T10:28:00.005Z,71.5
2024-03-21T10:29:01.972Z,70.4
2024-03-21T10:30:03.997Z,70.7
2024-03-21T10:31:06.134Z,68.9
2024-03-21T10:32:08.211Z,69.4
2024-03-21T10:33:09.975Z,67.9
2024-03-21T10:34:11.981Z,66.9
2024-03-21T10:35:20.672Z,66.7
2024-03-21T10:36:21.282Z,67.7
2024-03-21T10:37:23.286Z,66.7
2024-03-21T10:38:25.263Z,68
2024-03-21T10:39:27.260Z,65
2024-03-21T10:40:29.257Z,64.8
2024-03-21T10:41:31.599Z,65.2
2024-03-21T10:42:33.251Z,64.7
2024-03-21T10:43:35.254Z,65.1
2024-03-21T10:44:37.249Z,65.2
2024-03-21T10:45:39.287Z,67.1
2024-03-21T10:46:41.293Z,67.5
2024-03-21T10:47:43.260Z,68.2
2024-03-21T10:48:45.245Z,69.1
2024-03-21T10:49:47.249Z,68.6
2024-03-21T10:50:49.278Z,66.9
2024-03-21T10:51:51.250Z,65.8
2024-03-21T10:52:53.249Z,65.4
2024-03-21T10:53:55.240Z,66.7
2024-03-21T10:54:57.393Z,67.8
2024-03-21T10:55:59.265Z,69
2024-03-21T10:57:01.260Z,66.6
2024-03-21T10:58:03.253Z,65
2024-03-21T10:59:05.265Z,65
2024-03-21T11:00:07.283Z,64.6
2024-03-21T11:01:09.455Z,64.6
2024-03-21T11:02:11.601Z,63.9
2024-03-21T11:03:13.230Z,62.3
2024-03-21T11:04:15.245Z,60.5
2024-03-21T11:05:19.983Z,61.7
2024-03-21T11:06:25.800Z,62.3
2024-03-21T11:07:27.512Z,62
2024-03-21T11:08:29.505Z,63.4
2024-03-21T11:09:32.003Z,63.6
2024-03-21T11:10:33.742Z,62.4
2024-03-21T11:11:35.518Z,61.1
2024-03-21T11:12:37.510Z,60.4
2024-03-21T11:13:39.537Z,60.5
2024-03-21T11:14:41.539Z,61.8
2024-03-21T11:15:43.512Z,62.5
2024-03-21T11:16:45.514Z,62.7
2024-03-21T11:17:47.520Z,63.7
2024-03-21T11:18:49.521Z,66.3
2024-03-21T11:19:51.531Z,65.5
2024-03-21T11:20:53.517Z,63
2024-03-21T11:21:55.504Z,65.2
2024-03-21T11:22:57.533Z,64.9
2024-03-21T11:23:59.517Z,65.8
2024-03-21T11:25:01.518Z,65.8
2024-03-21T11:26:03.490Z,65.7
2024-03-21T11:27:05.510Z,66.6
2024-03-21T11:28:07.512Z,67.2
2024-03-21T11:29:19.864Z,66.9
2024-03-21T11:30:22.940Z,64
2024-03-21T11:31:23.377Z,63.7
2024-03-21T11:32:25.448Z,62.6
2024-03-21T11:33:27.558Z,61.8
2024-03-21T11:34:29.391Z,61.7
2024-03-21T11:35:31.377Z,60.4
2024-03-21T11:36:33.375Z,61.5
2024-03-21T11:37:35.410Z,61
2024-03-21T11:38:37.386Z,60.5
2024-03-21T11:39:39.390Z,57.5
2024-03-21T11:40:41.393Z,58.6
2024-03-21T11:41:43.415Z,58.9
2024-03-21T11:42:45.401Z,58.2
2024-03-21T11:43:47.372Z,59
2024-03-21T11:44:49.370Z,59.4
2024-03-21T11:45:51.365Z,58.2
2024-03-21T11:46:53.386Z,59.2
2024-03-21T11:47:55.389Z,59.7
2024-03-21T11:48:57.378Z,60.7
2024-03-21T11:49:59.368Z,60.4
2024-03-21T11:51:01.380Z,61.3
2024-03-21T11:52:03.389Z,62.8
2024-03-21T11:53:05.384Z,60.2
2024-03-21T11:54:07.357Z,58.9
2024-03-21T11:55:09.371Z,59.2
2024-03-21T11:56:11.419Z,60.2
2024-03-21T11:57:13.350Z,59.9
2024-03-21T11:58:15.361Z,60.4
2024-03-21T11:59:17.347Z,61.8
2024-03-21T12:00:20.064Z,62.4
2024-03-21T12:01:22.118Z,61.1
2024-03-21T12:02:23.357Z,61.1
2024-03-21T12:03:25.365Z,61.3
2024-03-21T12:04:27.762Z,61.9
2024-03-21T12:05:29.424Z,60.3
2024-03-21T12:06:31.376Z,61.2
2024-03-21T12:07:33.345Z,61.2
2024-03-21T12:08:35.336Z,61
2024-03-21T12:09:37.383Z,60.7
2024-03-21T12:10:39.394Z,58.7
2024-03-21T12:11:41.351Z,58.7
2024-03-21T12:12:47.387Z,59.4
2024-03-21T12:13:48.930Z,60.7
2024-03-21T12:14:50.582Z,60.5
2024-03-21T12:15:52.730Z,61.6
2024-03-21T12:16:54.553Z,62.5
2024-03-21T12:17:56.559Z,62.6
2024-03-21T12:18:58.564Z,64.8
2024-03-21T12:20:01.004Z,63.7
2024-03-21T12:21:02.706Z,66.6
2024-03-21T12:22:04.756Z,64.3
2024-03-21T12:23:06.882Z,65
2024-03-21T12:24:08.860Z,64.1
2024-03-21T12:25:10.579Z,63.7
2024-03-21T12:26:12.680Z,65.2
2024-03-21T12:27:15.071Z,65.1
2024-03-21T12:28:16.539Z,65.6
2024-03-21T12:29:18.829Z,64.6
2024-03-21T12:30:20.562Z,63.7
2024-03-21T12:31:22.544Z,61.5
2024-03-21T12:32:24.691Z,62.1
2024-03-21T12:33:26.553Z,65.6
2024-03-21T12:34:28.591Z,62.2
2024-03-21T12:35:30.574Z,62.6
2024-03-21T12:36:34.854Z,60.4
2024-03-21T12:37:35.150Z,61.2
2024-03-21T12:38:37.195Z,61.1
2024-03-21T12:39:39.379Z,60.2
2024-03-21T12:40:41.143Z,60.2
2024-03-21T12:41:43.136Z,60.8
2024-03-21T12:42:45.174Z,59.7
2024-03-21T12:43:47.162Z,59.4
2024-03-21T12:44:49.346Z,59.9
2024-03-21T12:45:51.533Z,58.7
2024-03-21T12:46:53.134Z,57.3
2024-03-21T12:47:55.455Z,56.6
2024-03-21T12:48:57.563Z,56.6
2024-03-21T12:49:59.334Z,56.3
2024-03-21T12:51:01.158Z,55.5
2024-03-21T12:52:03.430Z,55.1
2024-03-21T12:53:05.235Z,55.7
2024-03-21T12:54:07.259Z,57.2
2024-03-21T12:55:09.141Z,56.7
2024-03-21T12:56:11.159Z,57.3
2024-03-21T12:57:13.168Z,60.9
2024-03-21T12:58:15.474Z,58.5
2024-03-21T12:59:17.126Z,59.2
2024-03-21T13:00:19.119Z,59.8
2024-03-21T13:01:21.148Z,60.4
2024-03-21T13:02:23.363Z,60.2
2024-03-21T13:03:25.113Z,61.5
2024-03-21T13:04:27.489Z,61.9
2024-03-21T13:05:29.145Z,61.2
2024-03-21T13:06:32.197Z,61.8
2024-03-21T13:07:33.108Z,63.7
2024-03-21T13:08:35.670Z,62.6
2024-03-21T13:09:37.460Z,63.7
2024-03-21T13:10:39.820Z,63.2
2024-03-21T13:11:41.151Z,64.5
2024-03-21T13:12:43.482Z,64
2024-03-21T13:13:45.231Z,64.7
2024-03-21T13:14:47.133Z,64.6
2024-03-21T13:15:49.256Z,64.2
2024-03-21T13:16:51.552Z,64.7
2024-03-21T13:17:53.504Z,64.1
2024-03-21T13:18:57.173Z,65.2
2024-03-21T13:19:57.443Z,64.8
2024-03-21T13:20:59.748Z,62.5
2024-03-21T13:22:01.581Z,63.9
2024-03-21T13:23:03.462Z,65.1
2024-03-21T13:24:05.589Z,65.6
2024-03-21T13:25:07.494Z,65.3
2024-03-21T13:26:10.142Z,66.4
2024-03-21T13:27:12.038Z,66.4
2024-03-21T13:28:14.692Z,67
2024-03-21T13:29:17.642Z,67.9
2024-03-21T13:30:18.623Z,67.8
2024-03-21T13:31:20.390Z,67.3
2024-03-21T13:32:22.272Z,67.5
2024-03-21T13:33:24.171Z,67.2
2024-03-21T13:34:26.179Z,66.7
2024-03-21T13:35:28.184Z,68
2024-03-21T13:36:30.177Z,67.6
2024-03-21T13:37:32.443Z,68.7
2024-03-21T13:38:34.151Z,67.2
2024-03-21T13:39:36.418Z,66.3
2024-03-21T13:40:38.172Z,69
2024-03-21T13:41:40.160Z,67.5
2024-03-21T13:42:42.141Z,67.9
2024-03-21T13:43:44.171Z,67.4
2024-03-21T13:44:46.187Z,68
2024-03-21T13:45:48.181Z,68.7
2024-03-21T13:46:50.145Z,69.4
2024-03-21T13:47:52.142Z,68.2
2024-03-21T13:48:54.296Z,67.5
2024-03-21T13:49:56.132Z,65
2024-03-21T13:50:58.155Z,66.7
2024-03-21T13:52:00.175Z,66.9